Time;durP1;ratioP1;P1;durP2;ratioP2;P2;SDS_P1;SDS_P2;PMS_P1;PMS_P2;Temp;Humidity;BMP_temperature;BMP_pressure;BME280_temperature;BME280_humidity;BME280_pressure;Samples;Min_cycle;Max_cycle;Signal;HPM_P1;HPM_P2
2022/09/25 00:01:20;;;;;;;13.25;9.40;;;;;;;12.71;100.00;100863.16;6133221;23;20420;-76
2022/09/25 00:03:47;;;;;;;13.30;9.57;;;;;;;12.24;100.00;100782.50;6106308;23;20025;-74
2022/09/25 00:06:17;;;;;;;13.95;8.75;;;;;;;12.35;100.00;100800.34;6138563;23;20648;-76
2022/09/25 00:08:44;;;;;;;9.63;8.70;;;;;;;12.38;100.00;100810.66;6094868;23;20658;-74
2022/09/25 00:11:14;;;;;;;9.55;8.68;;;;;;;12.77;100.00;100864.59;6108392;23;20451;-75
2022/09/25 00:13:41;;;;;;;11.27;9.75;;;;;;;12.75;100.00;100875.19;6080091;23;20025;-74
2022/09/25 00:16:10;;;;;;;8.77;7.88;;;;;;;12.35;100.00;100808.22;6109873;23;20029;-77
2022/09/25 00:21:21;;;;;;;13.02;8.48;;;;;;;12.74;100.00;100870.00;6058533;23;20037;-75
2022/09/25 00:23:48;;;;;;;16.75;8.25;;;;;;;12.46;100.00;100820.75;6120284;23;20038;-75
2022/09/25 00:26:15;;;;;;;8.95;8.02;;;;;;;12.58;100.00;100846.34;6092263;23;20030;-76
2022/09/25 00:28:42;;;;;;;11.77;9.20;;;;;;;12.29;100.00;100795.44;6110930;23;20021;-76
2022/09/25 00:31:12;;;;;;;10.63;8.15;;;;;;;12.14;100.00;100774.28;6088187;23;20018;-76
2022/09/25 00:33:38;;;;;;;20.48;9.07;;;;;;;12.67;100.00;100855.50;6144427;23;20017;-75
2022/09/25 00:36:08;;;;;;;10.27;8.82;;;;;;;12.65;100.00;100860.88;6090465;23;20083;-75
2022/09/25 00:38:35;;;;;;;10.00;9.05;;;;;;;12.36;100.00;100816.00;6110228;23;20086;-75
2022/09/25 00:41:04;;;;;;;12.93;8.48;;;;;;;12.62;100.00;100860.19;6091235;23;20014;-76
2022/09/25 00:43:40;;;;;;;10.75;9.70;;;;;;;12.58;100.00;100865.63;6114757;23;20713;-74
2022/09/25 00:46:23;;;;;;;9.60;8.65;;;;;;;12.30;100.00;100820.78;6086321;23;20094;-75
2022/09/25 00:49:03;;;;;;;22.10;20.35;;;;;;;11.54;100.00;100693.53;5971594;23;20782;-74
2022/09/25 00:51:37;;;;;;;10.68;9.57;;;;;;;12.49;100.00;100854.81;6082859;23;20083;-75
2022/09/25 00:54:05;;;;;;;9.38;8.38;;;;;;;11.97;100.00;100772.66;6074678;23;20027;-74
2022/09/25 00:56:38;;;;;;;13.73;8.77;;;;;;;12.57;100.00;100868.38;6116825;23;20558;-75
2022/09/25 00:59:08;;;;;;;;;;;;;;;12.56;100.00;100870.13;6066229;23;20038;-75
2022/09/25 01:01:34;;;;;;;8.60;8.05;;;;;;;11.53;100.00;100699.72;6113885;23;20450;-75
2022/09/25 01:04:01;;;;;;;9.00;7.63;;;;;;;12.21;100.00;100824.81;6057150;23;20026;-75
2022/09/25 01:06:28;;;;;;;9.73;8.77;;;;;;;12.19;100.00;100813.53;6110516;23;20013;-76
2022/09/25 01:08:56;;;;;;;12.85;7.63;;;;;;;12.02;100.00;100801.31;6104018;23;20498;-78
2022/09/25 01:11:22;;;;;;;12.77;7.40;;;;;;;11.66;100.00;100727.94;6135945;23;20029;-77
2022/09/25 01:13:53;;;;;;;7.25;6.63;;;;;;;12.21;100.00;100819.53;6077880;23;20533;-75
2022/09/25 01:16:30;;;;;;;10.30;8.00;;;;;;;12.40;100.00;100853.53;6150599;23;20647;-76
2022/09/25 01:19:05;;;;;;;7.95;7.15;;;;;;;12.49;100.00;100862.72;6116691;23;20038;-76
2022/09/25 01:21:47;;;;;;;9.15;8.27;;;;;;;12.53;100.00;100864.22;6120765;23;20566;-74
2022/09/25 01:24:41;;;;;;;8.38;7.30;;;;;;;12.52;100.00;100870.41;6110801;23;20033;-74
2022/09/25 01:27:39;;;;;;;7.90;7.30;;;;;;;12.53;100.00;100874.75;6131886;23;20032;-73
2022/09/25 01:30:07;;;;;;;7.95;7.38;;;;;;;12.53;100.00;100869.50;6103593;23;20030;-74
2022/09/25 01:32:57;;;;;;;9.02;8.13;;;;;;;12.04;100.00;100796.81;6135691;23;20021;-74
2022/09/25 01:35:38;;;;;;;8.27;7.38;;;;;;;12.54;100.00;100876.44;6103420;23;20709;-74
2022/09/25 01:38:22;;;;;;;7.07;6.38;;;;;;;12.18;100.00;100822.34;6137960;23;20005;-75
2022/09/25 01:41:03;;;;;;;7.13;6.43;;;;;;;12.55;100.00;100878.16;6116643;23;20580;-73
2022/09/25 01:43:58;;;;;;;7.95;7.15;;;;;;;12.54;100.00;100873.81;6141115;23;20065;-74
2022/09/25 01:46:33;;;;;;;7.97;7.47;;;;;;;12.53;100.00;100875.59;6111861;23;20059;-75
2022/09/25 01:49:08;;;;;;;7.05;6.28;;;;;;;12.23;100.00;100833.47;6144813;23;20015;-74
2022/09/25 01:51:42;;;;;;;9.02;8.15;;;;;;;12.21;100.00;100832.69;6103083;23;20095;-77
2022/09/25 01:54:14;;;;;;;6.10;5.70;;;;;;;12.47;100.00;100881.22;6162415;23;20659;-75
2022/09/25 01:56:53;;;;;;;6.60;6.10;;;;;;;12.45;100.00;100879.59;6108390;23;20013;-74
2022/09/25 01:59:31;;;;;;;6.90;6.03;;;;;;;12.17;100.00;100836.44;6133585;23;20037;-75
2022/09/25 02:02:02;;;;;;;6.18;5.68;;;;;;;12.29;100.00;100862.06;6107489;23;20021;-73
2022/09/25 02:04:38;;;;;;;7.85;7.25;;;;;;;12.43;100.00;100881.47;6058571;23;20018;-74
2022/09/25 02:07:08;;;;;;;6.03;5.60;;;;;;;12.35;100.00;100874.84;6127340;23;20458;-73
2022/09/25 02:09:40;;;;;;;7.18;6.65;;;;;;;12.44;100.00;100883.16;6106616;23;20005;-73
2022/09/25 02:12:35;;;;;;;15.15;5.82;;;;;;;12.25;100.00;100857.03;6141135;23;20095;-75
2022/09/25 02:15:09;;;;;;;9.63;5.38;;;;;;;12.36;100.00;100871.28;6115886;23;20032;-75
2022/09/25 02:20:52;;;;;;;4.80;4.57;;;;;;;12.22;100.00;100852.78;6102684;23;20020;-73
2022/09/25 02:23:26;;;;;;;9.90;5.95;;;;;;;12.00;100.00;100824.22;6141426;23;20025;-75
2022/09/25 02:26:04;;;;;;;6.68;6.07;;;;;;;12.34;100.00;100885.47;6101147;23;20021;-73
2022/09/25 02:28:31;;;;;;;7.07;6.57;;;;;;;12.25;100.00;100878.09;6135200;23;20449;-75
2022/09/25 02:31:00;;;;;;;6.78;6.32;;;;;;;12.30;100.00;100883.94;6134683;23;20065;-74
2022/09/25 02:33:28;;;;;;;7.78;7.20;;;;;;;12.22;100.00;100886.16;6131410;23;20037;-76
2022/09/25 02:35:54;;;;;;;9.00;6.03;;;;;;;12.06;100.00;100875.66;6104738;23;20025;-74
2022/09/25 02:38:21;;;;;;;5.93;5.47;;;;;;;11.64;100.00;100798.16;6137625;23;20017;-76
2022/09/25 02:40:55;;;;;;;5.82;5.40;;;;;;;11.60;100.00;100802.72;6088547;23;20037;-74
2022/09/25 02:43:34;;;;;;;5.70;5.38;;;;;;;11.33;100.00;100778.81;6107605;23;20021;-75
2022/09/25 02:46:21;;;;;;;6.00;5.50;;;;;;;11.83;100.00;100842.72;6112676;23;20078;-75
2022/09/25 02:48:57;;;;;;;5.40;5.10;;;;;;;11.91;100.00;100885.25;6138899;23;20566;-73
2022/09/25 02:51:55;;;;;;;12.48;6.85;;;;;;;12.05;100.00;100884.50;6107237;23;20025;-73
2022/09/25 02:54:30;;;;;;;6.13;5.65;;;;;;;12.02;100.00;100888.09;6158839;23;20147;-75
2022/09/25 02:57:13;;;;;;;6.03;5.63;;;;;;;11.98;100.00;100889.22;6076081;23;20030;-75
2022/09/25 02:59:50;;;;;;;5.60;5.20;;;;;;;11.53;100.00;100817.16;6135638;23;20091;-74
2022/09/25 03:02:18;;;;;;;5.97;5.68;;;;;;;11.45;100.00;100806.22;6107886;23;20075;-75
2022/09/25 03:04:48;;;;;;;5.55;5.25;;;;;;;11.90;100.00;100892.25;6140102;23;20038;-75
2022/09/25 03:07:16;;;;;;;6.47;5.93;;;;;;;11.54;100.00;100834.59;6109986;23;20037;-74
2022/09/25 03:09:46;;;;;;;5.68;5.38;;;;;;;11.81;100.00;100890.13;6112022;23;20275;-75
2022/09/25 03:12:13;;;;;;;6.63;6.03;;;;;;;11.65;100.00;100863.81;6103207;23;20454;-75
2022/09/25 03:14:40;;;;;;;6.82;6.25;;;;;;;11.79;100.00;100889.34;6054652;23;20812;-76
2022/09/25 03:17:08;;;;;;;7.20;4.88;;;;;;;10.99;100.00;100751.72;6114953;23;20033;-73
2022/09/25 03:19:35;;;;;;;7.40;7.00;;;;;;;11.81;100.00;100902.38;6084904;23;20009;-75
2022/09/25 03:22:01;;;;;;;6.70;6.00;;;;;;;11.82;100.00;100894.44;6115068;23;20067;-75
2022/09/25 03:24:28;;;;;;;6.78;6.38;;;;;;;11.83;100.00;100890.88;6067940;23;20033;-74
2022/09/25 03:26:54;;;;;;;7.07;5.97;;;;;;;11.62;100.00;100865.75;6113474;23;20094;-73
2022/09/25 03:29:21;;;;;;;5.53;5.22;;;;;;;11.74;100.00;100871.19;6080535;23;20037;-75
2022/09/25 03:31:48;;;;;;;5.20;4.85;;;;;;;11.29;100.00;100806.19;6085791;23;20029;-75
2022/09/25 03:34:17;;;;;;;4.57;4.38;;;;;;;11.88;100.00;100896.72;6091030;23;20091;-74
2022/09/25 03:36:46;;;;;;;4.78;4.47;;;;;;;11.46;100.00;100819.25;6107259;23;20085;-74
2022/09/25 03:39:14;;;;;;;5.35;5.05;;;;;;;11.94;100.00;100896.41;6093315;23;20033;-75
2022/09/25 03:41:42;;;;;;;17.75;5.90;;;;;;;11.96;100.00;100902.44;6105713;23;20036;-76
2022/09/25 03:44:08;;;;;;;4.93;4.65;;;;;;;11.38;100.00;100814.44;6088947;23;20030;-75
2022/09/25 03:46:35;;;;;;;5.97;5.55;;;;;;;11.57;100.00;100837.09;6098100;23;20048;-75
2022/09/25 03:49:02;;;;;;;5.75;4.85;;;;;;;11.67;100.00;100869.81;6072407;23;20101;-74
2022/09/25 03:51:30;;;;;;;7.13;6.53;;;;;;;11.64;100.00;100853.38;6120155;23;20091;-74
2022/09/25 03:53:57;;;;;;;4.93;4.63;;;;;;;11.92;100.00;100895.66;6057874;23;20021;-74
2022/09/25 03:56:26;;;;;;;5.35;5.05;;;;;;;11.40;100.00;100818.75;6084472;23;20029;-75
2022/09/25 03:58:53;;;;;;;4.57;4.38;;;;;;;11.91;100.00;100899.22;6119174;23;20024;-74
2022/09/25 04:01:20;;;;;;;4.72;4.50;;;;;;;11.89;100.00;100895.84;6092684;23;20020;-75
2022/09/25 04:03:49;;;;;;;5.20;4.80;;;;;;;11.23;100.00;100796.84;6115700;23;20070;-76
2022/09/25 04:06:18;;;;;;;4.90;4.60;;;;;;;11.35;100.00;100804.06;6091833;23;20026;-76
2022/09/25 04:08:46;;;;;;;4.80;4.60;;;;;;;11.87;100.00;100897.66;6131805;23;20461;-74
2022/09/25 04:11:15;;;;;;;4.53;4.32;;;;;;;10.71;100.00;100703.28;6116312;23;20021;-75
2022/09/25 04:13:43;;;;;;;5.38;4.88;;;;;;;11.88;100.00;100901.97;6112343;23;20387;-74
2022/09/25 04:16:12;;;;;;;4.63;4.38;;;;;;;11.90;100.00;100896.69;6117323;23;20051;-74
2022/09/25 04:18:40;;;;;;;5.88;5.57;;;;;;;11.74;100.00;100881.69;6140096;23;20563;-75
2022/09/25 04:21:08;;;;;;;5.13;4.65;;;;;;;11.47;100.00;100842.00;6115059;23;20025;-76
2022/09/25 04:23:36;;;;;;;11.98;7.75;;;;;;;11.82;100.00;100893.59;6114991;23;20013;-75
2022/09/25 04:26:02;;;;;;;4.78;4.53;;;;;;;11.62;100.00;100866.59;6119714;23;20032;-76
2022/09/25 04:28:31;;;;;;;5.95;5.65;;;;;;;11.76;100.00;100884.25;6138024;23;20090;-74
2022/09/25 04:30:57;;;;;;;5.13;4.82;;;;;;;11.64;100.00;100877.88;6108987;23;20074;-74
2022/09/25 04:36:09;;;;;;;5.00;4.70;;;;;;;11.13;100.00;100788.59;6110810;23;20025;-74
2022/09/25 04:38:35;;;;;;;6.07;5.78;;;;;;;10.76;100.00;100724.91;6136564;23;20188;-74
2022/09/25 04:41:01;;;;;;;5.30;5.00;;;;;;;11.34;100.00;100827.78;6120017;23;20449;-75
2022/09/25 04:43:29;;;;;;;7.05;6.38;;;;;;;11.26;100.00;100815.06;6134038;23;20036;-73
2022/09/25 04:46:00;;;;;;;4.82;4.50;;;;;;;11.33;100.00;100834.84;6115233;23;20084;-74
2022/09/25 04:48:27;;;;;;;5.75;5.45;;;;;;;11.51;100.00;100874.22;6134123;23;20100;-76
2022/09/25 04:50:53;;;;;;;4.95;4.65;;;;;;;10.89;100.00;100782.03;6080275;23;20146;-75
2022/09/25 04:53:20;;;;;;;5.13;4.88;;;;;;;10.28;100.00;100720.38;6140312;23;20033;-74
2022/09/25 04:55:46;;;;;;;5.72;4.82;;;;;;;10.84;100.00;100805.88;6109373;23;20033;-76
2022/09/25 04:58:13;;;;;;;4.70;4.50;;;;;;;11.20;100.00;100878.44;6143963;23;20089;-74
2022/09/25 05:00:41;;;;;;;5.97;5.68;;;;;;;11.26;100.00;100907.00;6107118;23;20017;-74
2022/09/25 05:03:07;;;;;;;5.95;5.57;;;;;;;10.62;100.00;100815.78;6134213;23;20018;-74
2022/09/25 05:05:34;;;;;;;5.85;5.55;;;;;;;10.94;100.00;100874.53;6103183;23;20100;-74
2022/09/25 05:08:01;;;;;;;4.80;4.60;;;;;;;11.03;100.00;100897.69;6138794;23;20226;-73
2022/09/25 05:10:30;;;;;;;5.97;5.68;;;;;;;10.91;100.00;100890.44;6114570;23;20029;-75
2022/09/25 05:13:01;;;;;;;4.97;4.78;;;;;;;10.30;100.00;100802.47;6140456;23;20512;-72
2022/09/25 05:15:30;;;;;;;11.00;6.43;;;;;;;10.86;100.00;100908.19;6084195;23;20014;-74
2022/09/25 05:18:04;;;;;;;5.03;4.72;;;;;;;10.84;100.00;100905.63;6139903;23;20445;-74
2022/09/25 05:20:31;;;;;;;6.38;5.32;;;;;;;10.82;100.00;100911.91;6107211;23;20047;-74
2022/09/25 05:22:58;;;;;;;4.60;4.40;;;;;;;10.80;100.00;100905.88;6144757;23;20033;-75
2022/09/25 05:25:25;;;;;;;5.07;4.88;;;;;;;10.66;100.00;100883.78;6107736;23;20029;-75
2022/09/25 05:27:54;;;;;;;5.45;5.15;;;;;;;10.74;100.00;100905.28;6139646;23;20070;-74
2022/09/25 05:30:21;;;;;;;10.15;5.57;;;;;;;10.68;100.00;100902.91;6106663;23;20521;-75
2022/09/25 05:32:49;;;;;;;4.60;4.40;;;;;;;10.27;100.00;100841.97;6078747;23;20104;-75
2022/09/25 05:35:20;;;;;;;8.52;4.45;;;;;;;10.54;100.00;100901.00;6143389;23;20021;-74
2022/09/25 05:37:47;;;;;;;4.65;4.45;;;;;;;10.04;100.00;100819.47;6076516;23;20687;-74
2022/09/25 05:40:14;;;;;;;4.88;4.57;;;;;;;10.35;100.00;100895.78;6139794;23;20021;-73
2022/09/25 05:42:44;;;;;;;4.85;4.65;;;;;;;10.14;100.00;100881.91;6098757;23;20013;-74
2022/09/25 05:45:11;;;;;;;5.18;4.75;;;;;;;9.98;100.00;100847.69;6133196;23;20017;-75
2022/09/25 05:47:38;;;;;;;6.05;5.75;;;;;;;10.35;100.00;100894.94;6104860;23;20013;-75
2022/09/25 05:50:05;;;;;;;4.78;4.57;;;;;;;10.31;100.00;100906.50;6135104;23;20423;-75
2022/09/25 05:52:32;;;;;;;5.85;5.55;;;;;;;10.27;100.00;100911.00;6105674;23;20033;-74
2022/09/25 05:54:59;;;;;;;5.00;4.70;;;;;;;10.25;100.00;100909.38;6140041;23;20021;-75
2022/09/25 05:57:26;;;;;;;5.03;4.82;;;;;;;10.12;100.00;100909.97;6094442;23;20021;-73
2022/09/25 05:59:53;;;;;;;4.53;4.32;;;;;;;10.01;100.00;100877.31;6138827;23;20075;-75
2022/09/25 06:02:19;;;;;;;5.07;4.80;;;;;;;10.12;100.00;100895.97;6110208;23;20016;-75
2022/09/25 06:04:45;;;;;;;5.40;5.00;;;;;;;10.22;100.00;100909.53;6142551;23;20659;-74
2022/09/25 06:07:12;;;;;;;4.70;4.40;;;;;;;10.17;100.00;100910.59;6107134;23;20014;-74
2022/09/25 06:09:38;;;;;;;5.10;4.80;;;;;;;9.72;100.00;100845.41;6071663;23;20019;-73
2022/09/25 06:12:09;;;;;;;4.40;4.20;;;;;;;10.21;100.00;100921.78;6113764;23;20022;-74
2022/09/25 06:14:39;;;;;;;6.50;5.95;;;;;;;9.97;100.00;100887.91;6065769;23;20026;-75
2022/09/25 06:17:07;;;;;;;4.50;4.30;;;;;;;9.41;100.00;100789.19;6095423;23;20087;-76
2022/09/25 06:19:34;;;;;;;6.28;5.97;;;;;;;9.79;100.00;100842.44;6031303;23;20514;-75
2022/09/25 06:22:00;;;;;;;4.70;4.50;;;;;;;10.29;100.00;100919.66;6084766;23;20033;-73
2022/09/25 06:24:26;;;;;;;4.55;4.35;;;;;;;10.27;100.00;100908.38;6055703;23;20026;-75
2022/09/25 06:26:53;;;;;;;4.90;4.70;;;;;;;10.38;100.00;100923.63;6095087;23;20091;-74
2022/09/25 06:29:19;;;;;;;4.70;4.50;;;;;;;10.44;100.00;100925.97;6054254;23;20515;-74
2022/09/25 06:31:46;;;;;;;7.82;4.75;;;;;;;10.34;100.00;100901.09;6080355;23;20040;-73
2022/09/25 06:34:12;;;;;;;5.28;4.90;;;;;;;10.22;100.00;100863.16;6063993;23;20030;-74
2022/09/25 06:36:38;;;;;;;4.50;4.30;;;;;;;10.71;100.00;100936.06;6115670;23;20016;-74
2022/09/25 06:39:05;;;;;;;4.30;4.10;;;;;;;10.84;100.00;100931.06;6060454;23;20038;-74
2022/09/25 06:41:31;;;;;;;4.80;4.60;;;;;;;10.98;100.00;100926.81;6093719;23;20021;-76
2022/09/25 06:43:58;;;;;;;5.60;5.20;;;;;;;11.18;100.00;100925.81;6068270;23;20029;-74
2022/09/25 06:46:25;;;;;;;5.10;4.68;;;;;;;11.37;100.00;100922.25;6123373;23;20021;-74
2022/09/25 06:48:56;;;;;;;4.78;4.57;;;;;;;11.34;100.00;100888.22;6062862;23;20018;-73
2022/09/25 06:51:24;;;;;;;5.55;5.22;;;;;;;11.72;100.00;100927.41;6066434;23;20640;-75
2022/09/25 06:53:54;;;;;;;5.32;4.93;;;;;;;11.65;100.00;100886.63;6065765;23;20029;-74
2022/09/25 06:56:21;;;;;;;8.63;4.65;;;;;;;11.67;100.00;100879.50;6099585;23;20150;-73
2022/09/25 06:58:47;;;;;;;5.10;4.80;;;;;;;12.20;100.00;100930.13;6068281;23;20084;-74
2022/09/25 07:01:16;;;;;;;5.05;4.75;;;;;;;12.27;100.00;100932.34;6092368;23;20068;-75
2022/09/25 07:03:43;;;;;;;5.18;4.88;;;;;;;11.17;100.00;100734.97;6059341;23;20072;-75
2022/09/25 07:06:21;;;;;;;10.07;4.95;;;;;;;12.52;100.00;100929.16;6089735;23;20018;-74
2022/09/25 07:08:48;;;;;;;5.60;5.10;;;;;;;12.65;100.00;100931.09;6056969;23;20087;-74
2022/09/25 07:11:20;;;;;;;4.47;4.22;;;;;;;12.54;100.00;100924.66;6115343;23;20481;-74
2022/09/25 07:13:53;;;;;;;5.60;4.80;;;;;;;12.76;100.00;100939.25;6082433;23;20025;-74
2022/09/25 07:16:23;;;;;;;4.93;4.68;;;;;;;12.95;100.00;100931.97;6113430;23;20017;-74
2022/09/25 07:18:52;;;;;;;8.30;5.70;;;;;;;13.29;100.00;100940.56;6078048;23;20034;-74
2022/09/25 07:21:21;;;;;;;4.75;4.55;;;;;;;13.44;100.00;100919.50;6086379;23;20017;-75
2022/09/25 07:23:49;;;;;;;6.32;5.32;;;;;;;13.55;100.00;100874.84;6057297;23;20058;-74
2022/09/25 07:26:21;;;;;;;5.20;4.90;;;;;;;13.32;100.00;100810.38;6112998;23;20374;-75
2022/09/25 07:28:54;;;;;;;8.50;5.00;;;;;;;13.73;100.00;100899.22;6084665;23;20026;-75
2022/09/25 07:31:26;;;;;;;10.18;5.43;;;;;;;13.71;100.00;100932.75;6119256;23;20038;-75
2022/09/25 07:33:53;;;;;;;;;;;;;;;13.64;100.00;100942.00;6082657;23;20549;-75
2022/09/25 07:36:20;;;;;;;5.75;5.45;;;;;;;13.41;100.00;100946.03;6116658;23;19978;-74
2022/09/25 07:38:51;;;;;;;5.43;5.13;;;;;;;13.15;100.00;100924.69;6063732;23;20546;-74
2022/09/25 07:41:18;;;;;;;5.15;4.82;;;;;;;13.29;100.00;100945.84;6113825;23;20063;-75
2022/09/25 07:43:45;;;;;;;4.88;4.68;;;;;;;13.36;100.00;100947.16;6085881;23;20182;-75
2022/09/25 07:46:11;;;;;;;5.53;4.93;;;;;;;13.22;100.00;100927.81;6112622;23;20134;-76
2022/09/25 07:48:38;;;;;;;5.55;5.20;;;;;;;13.34;100.00;100943.75;6073690;23;20047;-74
2022/09/25 07:51:07;;;;;;;6.50;5.63;;;;;;;13.16;100.00;100924.59;6093627;23;20037;-73
2022/09/25 07:53:34;;;;;;;4.88;4.57;;;;;;;13.26;100.00;100932.78;6056723;23;20925;-74
2022/09/25 07:56:01;;;;;;;5.13;4.82;;;;;;;13.27;100.00;100957.34;6052686;23;20072;-74
2022/09/25 07:58:34;;;;;;;12.32;6.90;;;;;;;12.94;100.00;100889.91;6069378;23;20042;-74
2022/09/25 08:01:03;;;;;;;5.00;4.75;;;;;;;13.24;100.00;100926.75;6091474;23;20033;-75
2022/09/25 08:03:29;;;;;;;5.53;5.22;;;;;;;13.21;100.00;100918.19;6065603;23;20669;-74
2022/09/25 08:05:57;;;;;;;5.68;5.22;;;;;;;13.18;100.00;100911.31;6091746;23;20071;-75
2022/09/25 08:08:26;;;;;;;5.43;4.68;;;;;;;13.53;100.00;100959.34;6075040;23;20079;-74
2022/09/25 08:10:58;;;;;;;5.80;5.25;;;;;;;13.64;100.00;100952.56;6121983;23;20626;-74
2022/09/25 08:13:25;;;;;;;6.78;5.32;;;;;;;13.52;100.00;100954.97;6085352;23;20017;-74
2022/09/25 08:15:51;;;;;;;7.28;5.63;;;;;;;13.86;100.00;100963.47;6056698;23;20043;-73
2022/09/25 08:18:17;;;;;;;5.45;5.15;;;;;;;13.66;100.00;100956.78;6127203;23;20057;-74
2022/09/25 08:20:44;;;;;;;5.93;5.00;;;;;;;13.44;100.00;100957.25;6102518;23;20052;-74
2022/09/25 08:23:11;;;;;;;8.43;5.25;;;;;;;13.10;100.00;100914.41;6113994;23;20033;-75
2022/09/25 08:25:37;;;;;;;10.27;5.32;;;;;;;12.88;100.00;100895.53;6087551;23;20112;-74
2022/09/25 08:28:03;;;;;;;8.48;5.15;;;;;;;13.27;100.00;100965.25;6119318;23;20025;-74
2022/09/25 08:30:30;;;;;;;6.22;5.65;;;;;;;13.51;100.00;100971.75;6057422;23;20052;-74
2022/09/25 08:32:56;;;;;;;7.63;5.38;;;;;;;13.62;100.00;100962.34;6081867;23;20018;-74
2022/09/25 08:35:23;;;;;;;5.03;4.72;;;;;;;13.74;100.00;100965.06;6120040;23;20021;-75
2022/09/25 08:37:49;;;;;;;5.63;5.22;;;;;;;13.74;100.00;100945.78;6095679;23;20463;-75
2022/09/25 08:40:25;;;;;;;5.75;5.35;;;;;;;13.62;100.00;100957.91;6124653;23;20033;-76
2022/09/25 08:42:53;;;;;;;5.10;4.80;;;;;;;13.22;100.00;100951.53;6109089;23;20034;-75
2022/09/25 08:51:13;;;;;;;5.35;5.03;;;;;;;12.75;100.00;100861.19;6093895;23;20018;-76
2022/09/25 08:53:43;;;;;;;4.80;4.50;;;;;;;13.31;100.00;100958.91;6125265;23;20721;-75
2022/09/25 08:56:16;;;;;;;5.47;4.97;;;;;;;13.37;100.00;100961.19;6088522;23;20084;-76
2022/09/25 08:59:01;;;;;;;5.65;5.13;;;;;;;13.18;100.00;100929.78;6118810;23;20660;-76
2022/09/25 09:01:41;;;;;;;6.15;5.55;;;;;;;12.97;100.00;100869.50;6093185;23;20021;-75
2022/09/25 09:04:18;;;;;;;9.40;5.13;;;;;;;13.91;98.89;100971.97;6127613;23;20045;-75
2022/09/25 09:06:47;;;;;;;4.82;4.60;;;;;;;13.62;97.63;100891.16;6090504;23;20034;-75
2022/09/25 09:09:34;;;;;;;5.38;4.90;;;;;;;14.14;93.31;100954.69;6092236;23;20070;-76
2022/09/25 09:12:11;;;;;;;5.35;5.00;;;;;;;14.32;92.80;100976.44;6086214;23;20018;-76
2022/09/25 09:14:47;;;;;;;7.93;5.53;;;;;;;14.33;93.38;100972.00;6119520;23;20009;-76
2022/09/25 09:17:16;;;;;;;4.90;4.57;;;;;;;14.49;94.92;100969.22;6086842;23;20038;-75
2022/09/25 09:19:46;;;;;;;4.97;4.72;;;;;;;14.52;87.71;100940.81;6116002;23;20010;-75
2022/09/25 09:22:17;;;;;;;5.60;5.30;;;;;;;14.39;88.64;100958.41;6085761;23;20056;-76
2022/09/25 09:24:59;;;;;;;8.10;5.20;;;;;;;14.87;84.89;100973.84;6118066;23;20418;-75
2022/09/25 09:27:44;;;;;;;5.18;4.90;;;;;;;15.02;82.89;100975.47;6085884;23;20242;-76
2022/09/25 09:30:17;;;;;;;5.20;4.90;;;;;;;15.14;83.45;100974.66;6118802;23;20033;-75
2022/09/25 09:33:13;;;;;;;6.03;5.53;;;;;;;15.41;84.16;100975.53;6083649;23;20026;-75
2022/09/25 09:35:45;;;;;;;11.23;5.70;;;;;;;15.47;83.52;100968.03;6088217;23;20047;-75
2022/09/25 09:38:23;;;;;;;5.50;5.20;;;;;;;14.81;85.54;100927.53;6085616;23;20013;-75
2022/09/25 09:41:11;;;;;;;11.80;5.55;;;;;;;15.06;84.00;100971.69;6054440;23;20571;-75
2022/09/25 09:43:53;;;;;;;5.43;5.07;;;;;;;15.02;85.31;100964.06;6112350;23;20036;-74
2022/09/25 09:47:10;;;;;;;5.43;5.00;;;;;;;15.52;83.33;100968.56;6081210;23;20029;-74
2022/09/25 09:49:49;;;;;;;5.25;4.93;;;;;;;15.23;79.37;100832.22;6048571;23;20887;-75
2022/09/25 09:52:20;;;;;;;5.22;5.00;;;;;;;15.91;72.77;100961.47;6114186;23;20042;-74
2022/09/25 09:54:52;;;;;;;5.57;5.18;;;;;;;15.63;70.52;100928.13;6083340;23;20399;-74
2022/09/25 09:57:23;;;;;;;4.88;4.68;;;;;;;15.21;72.19;100939.88;6108381;23;20024;-75
2022/09/25 10:00:04;;;;;;;5.18;4.78;;;;;;;15.15;75.79;100965.78;6058947;23;20115;-73
2022/09/25 10:02:49;;;;;;;5.82;5.38;;;;;;;15.38;76.75;100965.19;6115620;23;20022;-74
2022/09/25 10:05:30;;;;;;;5.13;4.82;;;;;;;15.34;75.39;100960.09;6068474;23;20594;-76
2022/09/25 10:07:56;;;;;;;5.97;5.28;;;;;;;14.76;75.57;100906.69;6119958;23;20601;-75
2022/09/25 10:10:33;;;;;;;5.53;4.60;;;;;;;14.56;73.90;100847.28;6098587;23;20013;-74
2022/09/25 10:13:05;;;;;;;5.13;4.70;;;;;;;15.82;72.89;100970.09;6127689;23;20025;-76
2022/09/25 10:15:37;;;;;;;5.25;4.82;;;;;;;16.03;71.00;100938.59;6060929;23;20011;-75
2022/09/25 10:18:06;;;;;;;5.25;4.85;;;;;;;16.00;73.32;100938.81;6092440;23;20138;-75
2022/09/25 10:20:40;;;;;;;4.68;4.47;;;;;;;15.61;72.24;100924.75;6061096;23;20018;-75
2022/09/25 10:23:25;;;;;;;4.80;4.60;;;;;;;15.49;73.02;100905.28;6058586;23;20046;-74
2022/09/25 10:25:51;;;;;;;4.70;4.50;;;;;;;16.18;72.75;100938.44;6138925;23;20037;-75
2022/09/25 10:28:25;;;;;;;5.20;4.80;;;;;;;16.07;68.73;100889.75;6092492;23;20033;-74
2022/09/25 10:30:53;;;;;;;5.07;4.70;;;;;;;16.29;68.51;100952.59;6120116;23;20026;-74
2022/09/25 10:33:26;;;;;;;4.97;4.78;;;;;;;16.06;66.87;100959.56;6090281;23;20068;-74
2022/09/25 10:35:53;;;;;;;;;;;;;;;15.64;67.43;100987.22;6061940;23;20026;-75
2022/09/25 10:38:42;;;;;;;4.80;4.60;;;;;;;16.17;67.25;100960.59;6119645;23;19910;-74
2022/09/25 10:41:13;;;;;;;5.85;5.55;;;;;;;15.50;66.30;100797.72;6081160;23;20018;-76
2022/09/25 10:43:59;;;;;;;5.13;4.65;;;;;;;16.88;64.54;100958.97;6107880;23;20025;-75
2022/09/25 10:52:12;;;;;;;7.15;5.60;;;;;;;16.93;67.26;100909.09;6058189;23;20034;-75
2022/09/25 10:54:39;;;;;;;5.65;5.25;;;;;;;15.79;67.87;100816.78;6111244;23;20039;-75
2022/09/25 10:57:33;;;;;;;6.00;5.70;;;;;;;16.64;69.55;100919.22;6087544;23;20040;-75
2022/09/25 11:00:19;;;;;;;13.48;5.40;;;;;;;16.97;69.88;100934.41;6120759;23;20016;-75
2022/09/25 11:02:48;;;;;;;12.00;5.82;;;;;;;16.67;66.41;100845.59;6087864;23;20010;-75
2022/09/25 11:05:20;;;;;;;5.80;5.40;;;;;;;17.25;68.22;100945.59;6123032;23;20017;-75
2022/09/25 11:07:53;;;;;;;5.97;5.28;;;;;;;16.73;68.27;100910.56;6097008;23;20021;-75
2022/09/25 11:10:23;;;;;;;6.32;5.85;;;;;;;16.24;69.24;100930.91;6055870;23;20017;-75
2022/09/25 11:12:50;;;;;;;6.05;5.45;;;;;;;16.08;68.15;100946.22;6050444;23;20110;-76
2022/09/25 11:15:22;;;;;;;6.25;5.85;;;;;;;16.17;68.95;100920.88;6059544;23;20034;-74
2022/09/25 11:17:51;;;;;;;9.60;6.38;;;;;;;16.68;66.11;100963.91;6088982;23;20006;-75
2022/09/25 11:20:18;;;;;;;9.93;5.97;;;;;;;16.70;67.38;100962.00;6056207;23;20022;-75
2022/09/25 11:22:58;;;;;;;7.40;6.60;;;;;;;17.03;64.62;100955.16;6087577;23;20025;-75
2022/09/25 11:25:37;;;;;;;5.30;5.00;;;;;;;16.33;59.54;100890.50;6059266;23;20225;-74
2022/09/25 11:28:15;;;;;;;6.00;5.35;;;;;;;16.84;60.39;100957.50;6084405;23;20018;-75
2022/09/25 11:30:50;;;;;;;5.95;5.50;;;;;;;16.77;61.83;100950.94;6056251;23;20026;-75
2022/09/25 11:33:26;;;;;;;5.85;5.30;;;;;;;16.67;61.02;100905.72;6088179;23;20435;-76
2022/09/25 11:36:10;;;;;;;5.60;5.30;;;;;;;16.88;59.14;100957.16;6060626;23;20026;-74
2022/09/25 11:41:54;;;;;;;5.38;5.05;;;;;;;16.61;60.78;100936.16;6057350;23;20013;-75
2022/09/25 11:44:37;;;;;;;5.25;4.95;;;;;;;16.94;59.77;100940.81;6095069;23;20026;-74
2022/09/25 11:47:14;;;;;;;5.45;5.15;;;;;;;16.92;63.49;100950.69;6059841;23;20077;-75
2022/09/25 11:49:41;;;;;;;5.00;4.60;;;;;;;16.84;64.19;100945.09;6090474;23;20075;-75
2022/09/25 11:52:21;;;;;;;5.07;4.72;;;;;;;16.80;65.26;100950.69;6057593;23;20034;-75
2022/09/25 11:55:22;;;;;;;5.10;4.75;;;;;;;16.73;62.45;100948.50;6084888;23;20018;-76
2022/09/25 11:58:33;;;;;;;5.00;4.70;;;;;;;16.71;63.01;100876.22;6054499;23;20014;-75
2022/09/25 12:01:23;;;;;;;5.50;5.20;;;;;;;17.78;58.88;100942.38;6096322;23;20517;-75
2022/09/25 12:04:14;;;;;;;5.40;5.10;;;;;;;17.89;57.04;100937.09;6030787;23;20014;-74